sensor_id;sensor_type;location;lat;lon;timestamp;P1;durP1;ratioP1;P2;durP2;ratioP2
9292;SDS011;69930;48.232;12.384;2024-01-16T00:01:21;3.20;;;2.90;;
9292;SDS011;69930;48.232;12.384;2024-01-16T00:03:49;3.80;;;3.17;;
9292;SDS011;69930;48.232;12.384;2024-01-16T00:06:18;3.30;;;3.00;;
9292;SDS011;69930;48.232;12.384;2024-01-16T00:08:45;3.50;;;3.20;;
9292;SDS011;69930;48.232;12.384;2024-01-16T00:11:12;3.53;;;2.80;;
9292;SDS011;69930;48.232;12.384;2024-01-16T00:13:39;4.22;;;3.13;;
9292;SDS011;69930;48.232;12.384;2024-01-16T00:16:08;3.83;;;2.90;;
9292;SDS011;69930;48.232;12.384;2024-01-16T00:18:35;4.03;;;3.05;;
9292;SDS011;69930;48.232;12.384;2024-01-16T00:21:02;2.92;;;2.67;;
9292;SDS011;69930;48.232;12.384;2024-01-16T00:23:31;4.10;;;3.05;;
9292;SDS011;69930;48.232;12.384;2024-01-16T00:26:18;3.83;;;3.15;;
9292;SDS011;69930;48.232;12.384;2024-01-16T00:28:50;2.83;;;2.63;;
9292;SDS011;69930;48.232;12.384;2024-01-16T00:31:20;2.85;;;2.65;;
9292;SDS011;69930;48.232;12.384;2024-01-16T00:33:47;3.17;;;2.88;;
9292;SDS011;69930;48.232;12.384;2024-01-16T00:36:14;2.92;;;2.63;;
9292;SDS011;69930;48.232;12.384;2024-01-16T00:38:43;3.33;;;2.92;;
9292;SDS011;69930;48.232;12.384;2024-01-16T00:41:12;3.00;;;2.70;;
9292;SDS011;69930;48.232;12.384;2024-01-16T00:43:40;4.18;;;2.53;;
9292;SDS011;69930;48.232;12.384;2024-01-16T00:46:08;2.90;;;2.50;;
9292;SDS011;69930;48.232;12.384;2024-01-16T00:48:38;2.58;;;2.38;;
9292;SDS011;69930;48.232;12.384;2024-01-16T00:51:07;2.63;;;2.38;;
9292;SDS011;69930;48.232;12.384;2024-01-16T00:53:39;2.70;;;2.50;;
9292;SDS011;69930;48.232;12.384;2024-01-16T00:56:21;3.58;;;2.67;;
9292;SDS011;69930;48.232;12.384;2024-01-16T00:58:53;3.17;;;2.47;;
9292;SDS011;69930;48.232;12.384;2024-01-16T01:01:28;2.78;;;2.58;;
9292;SDS011;69930;48.232;12.384;2024-01-16T01:03:59;3.42;;;2.60;;
9292;SDS011;69930;48.232;12.384;2024-01-16T01:06:27;3.50;;;2.60;;
9292;SDS011;69930;48.232;12.384;2024-01-16T01:08:56;3.70;;;2.45;;
9292;SDS011;69930;48.232;12.384;2024-01-16T01:11:24;2.65;;;2.40;;
9292;SDS011;69930;48.232;12.384;2024-01-16T01:13:51;2.78;;;2.50;;
9292;SDS011;69930;48.232;12.384;2024-01-16T01:16:26;3.17;;;2.40;;
9292;SDS011;69930;48.232;12.384;2024-01-16T01:18:52;2.50;;;2.30;;
9292;SDS011;69930;48.232;12.384;2024-01-16T01:24:03;2.50;;;2.20;;
9292;SDS011;69930;48.232;12.384;2024-01-16T01:26:32;2.53;;;1.88;;
9292;SDS011;69930;48.232;12.384;2024-01-16T01:28:59;2.88;;;2.10;;
9292;SDS011;69930;48.232;12.384;2024-01-16T01:31:26;2.95;;;2.20;;
9292;SDS011;69930;48.232;12.384;2024-01-16T01:33:54;2.15;;;1.90;;
9292;SDS011;69930;48.232;12.384;2024-01-16T01:36:25;2.67;;;2.17;;
9292;SDS011;69930;48.232;12.384;2024-01-16T01:38:55;3.40;;;2.00;;
9292;SDS011;69930;48.232;12.384;2024-01-16T01:41:23;1.92;;;1.83;;
9292;SDS011;69930;48.232;12.384;2024-01-16T01:43:50;2.40;;;2.17;;
9292;SDS011;69930;48.232;12.384;2024-01-16T01:46:17;2.45;;;2.00;;
9292;SDS011;69930;48.232;12.384;2024-01-16T01:48:46;2.30;;;2.10;;
9292;SDS011;69930;48.232;12.384;2024-01-16T01:51:14;3.15;;;2.05;;
9292;SDS011;69930;48.232;12.384;2024-01-16T01:53:45;2.67;;;2.13;;
9292;SDS011;69930;48.232;12.384;2024-01-16T01:56:17;2.13;;;1.92;;
9292;SDS011;69930;48.232;12.384;2024-01-16T01:58:46;2.92;;;2.10;;
9292;SDS011;69930;48.232;12.384;2024-01-16T02:01:16;3.78;;;1.92;;
9292;SDS011;69930;48.232;12.384;2024-01-16T02:03:46;3.00;;;2.17;;
9292;SDS011;69930;48.232;12.384;2024-01-16T02:06:13;2.53;;;1.65;;
9292;SDS011;69930;48.232;12.384;2024-01-16T02:08:42;2.20;;;2.00;;
9292;SDS011;69930;48.232;12.384;2024-01-16T02:11:11;2.97;;;2.00;;
9292;SDS011;69930;48.232;12.384;2024-01-16T02:13:39;3.17;;;2.05;;
9292;SDS011;69930;48.232;12.384;2024-01-16T02:16:16;2.38;;;2.03;;
9292;SDS011;69930;48.232;12.384;2024-01-16T02:18:44;2.25;;;2.03;;
9292;SDS011;69930;48.232;12.384;2024-01-16T02:21:15;2.47;;;2.10;;
9292;SDS011;69930;48.232;12.384;2024-01-16T02:23:49;3.03;;;2.10;;
9292;SDS011;69930;48.232;12.384;2024-01-16T02:26:17;3.17;;;1.95;;
9292;SDS011;69930;48.232;12.384;2024-01-16T02:28:44;2.17;;;2.00;;
9292;SDS011;69930;48.232;12.384;2024-01-16T02:31:12;2.78;;;2.10;;
9292;SDS011;69930;48.232;12.384;2024-01-16T02:33:40;2.30;;;2.10;;
9292;SDS011;69930;48.232;12.384;2024-01-16T02:36:07;3.35;;;2.00;;
9292;SDS011;69930;48.232;12.384;2024-01-16T02:38:34;2.30;;;2.10;;
9292;SDS011;69930;48.232;12.384;2024-01-16T02:41:03;3.25;;;2.10;;
9292;SDS011;69930;48.232;12.384;2024-01-16T02:43:31;2.83;;;2.40;;
9292;SDS011;69930;48.232;12.384;2024-01-16T02:45:59;1.92;;;1.73;;
9292;SDS011;69930;48.232;12.384;2024-01-16T02:48:26;3.22;;;2.22;;
9292;SDS011;69930;48.232;12.384;2024-01-16T02:50:54;2.97;;;2.13;;
9292;SDS011;69930;48.232;12.384;2024-01-16T02:53:21;3.25;;;2.22;;
9292;SDS011;69930;48.232;12.384;2024-01-16T02:55:48;2.80;;;2.05;;
9292;SDS011;69930;48.232;12.384;2024-01-16T02:58:19;3.28;;;2.13;;
9292;SDS011;69930;48.232;12.384;2024-01-16T03:00:47;2.55;;;1.90;;
9292;SDS011;69930;48.232;12.384;2024-01-16T03:03:14;2.38;;;2.15;;
9292;SDS011;69930;48.232;12.384;2024-01-16T03:05:43;3.25;;;1.98;;
9292;SDS011;69930;48.232;12.384;2024-01-16T03:08:14;2.63;;;2.00;;
9292;SDS011;69930;48.232;12.384;2024-01-16T03:10:41;2.30;;;2.10;;
9292;SDS011;69930;48.232;12.384;2024-01-16T03:13:09;2.25;;;2.03;;
9292;SDS011;69930;48.232;12.384;2024-01-16T03:15:38;2.28;;;2.00;;
9292;SDS011;69930;48.232;12.384;2024-01-16T03:18:06;2.40;;;2.05;;
9292;SDS011;69930;48.232;12.384;2024-01-16T03:20:35;2.33;;;2.00;;
9292;SDS011;69930;48.232;12.384;2024-01-16T03:23:02;2.28;;;2.00;;
9292;SDS011;69930;48.232;12.384;2024-01-16T03:25:30;2.08;;;1.88;;
9292;SDS011;69930;48.232;12.384;2024-01-16T03:28:02;2.88;;;1.92;;
9292;SDS011;69930;48.232;12.384;2024-01-16T03:30:30;2.88;;;1.77;;
9292;SDS011;69930;48.232;12.384;2024-01-16T03:32:58;2.28;;;2.00;;
9292;SDS011;69930;48.232;12.384;2024-01-16T03:35:26;2.10;;;1.85;;
9292;SDS011;69930;48.232;12.384;2024-01-16T03:37:53;3.08;;;2.10;;
9292;SDS011;69930;48.232;12.384;2024-01-16T03:40:20;2.47;;;2.15;;
9292;SDS011;69930;48.232;12.384;2024-01-16T03:42:48;3.08;;;1.85;;
9292;SDS011;69930;48.232;12.384;2024-01-16T03:45:17;1.95;;;1.80;;
9292;SDS011;69930;48.232;12.384;2024-01-16T03:47:43;3.72;;;1.92;;
9292;SDS011;69930;48.232;12.384;2024-01-16T03:50:12;2.92;;;2.00;;
9292;SDS011;69930;48.232;12.384;2024-01-16T03:52:39;2.88;;;2.00;;
9292;SDS011;69930;48.232;12.384;2024-01-16T03:55:07;4.20;;;2.25;;
9292;SDS011;69930;48.232;12.384;2024-01-16T03:57:37;5.57;;;2.05;;
9292;SDS011;69930;48.232;12.384;2024-01-16T04:00:05;3.97;;;2.45;;
9292;SDS011;69930;48.232;12.384;2024-01-16T04:02:37;2.42;;;2.20;;
9292;SDS011;69930;48.232;12.384;2024-01-16T04:05:05;3.35;;;2.40;;
9292;SDS011;69930;48.232;12.384;2024-01-16T04:07:49;2.15;;;2.03;;
9292;SDS011;69930;48.232;12.384;2024-01-16T04:10:20;3.30;;;2.53;;
9292;SDS011;69930;48.232;12.384;2024-01-16T04:12:47;2.97;;;2.28;;
9292;SDS011;69930;48.232;12.384;2024-01-16T04:15:15;2.58;;;2.30;;
9292;SDS011;69930;48.232;12.384;2024-01-16T04:17:44;2.42;;;2.05;;
9292;SDS011;69930;48.232;12.384;2024-01-16T04:20:12;3.58;;;2.05;;
9292;SDS011;69930;48.232;12.384;2024-01-16T04:22:41;2.53;;;2.10;;
9292;SDS011;69930;48.232;12.384;2024-01-16T04:25:10;2.97;;;2.33;;
9292;SDS011;69930;48.232;12.384;2024-01-16T04:27:37;3.15;;;2.35;;
9292;SDS011;69930;48.232;12.384;2024-01-16T04:30:06;3.72;;;2.15;;
9292;SDS011;69930;48.232;12.384;2024-01-16T04:32:35;2.85;;;2.40;;
9292;SDS011;69930;48.232;12.384;2024-01-16T04:35:03;2.63;;;2.42;;
9292;SDS011;69930;48.232;12.384;2024-01-16T04:37:44;3.33;;;2.55;;
9292;SDS011;69930;48.232;12.384;2024-01-16T04:40:26;3.83;;;2.72;;
9292;SDS011;69930;48.232;12.384;2024-01-16T04:42:55;3.13;;;2.58;;
9292;SDS011;69930;48.232;12.384;2024-01-16T04:45:24;2.40;;;2.20;;
9292;SDS011;69930;48.232;12.384;2024-01-16T04:47:52;2.58;;;2.38;;
9292;SDS011;69930;48.232;12.384;2024-01-16T04:50:28;2.25;;;2.05;;
9292;SDS011;69930;48.232;12.384;2024-01-16T04:52:58;3.17;;;2.30;;
9292;SDS011;69930;48.232;12.384;2024-01-16T04:55:28;3.88;;;2.42;;
9292;SDS011;69930;48.232;12.384;2024-01-16T04:57:55;6.28;;;2.75;;
9292;SDS011;69930;48.232;12.384;2024-01-16T05:00:23;3.65;;;2.53;;
9292;SDS011;69930;48.232;12.384;2024-01-16T05:02:49;3.97;;;2.42;;
9292;SDS011;69930;48.232;12.384;2024-01-16T05:05:16;4.07;;;2.70;;
9292;SDS011;69930;48.232;12.384;2024-01-16T05:07:44;3.03;;;2.70;;
9292;SDS011;69930;48.232;12.384;2024-01-16T05:10:11;3.05;;;2.28;;
9292;SDS011;69930;48.232;12.384;2024-01-16T05:12:42;4.57;;;2.70;;
9292;SDS011;69930;48.232;12.384;2024-01-16T05:15:10;4.63;;;2.65;;
9292;SDS011;69930;48.232;12.384;2024-01-16T05:17:38;3.67;;;2.42;;
9292;SDS011;69930;48.232;12.384;2024-01-16T05:20:05;3.78;;;2.58;;
9292;SDS011;69930;48.232;12.384;2024-01-16T05:22:47;3.30;;;2.55;;
9292;SDS011;69930;48.232;12.384;2024-01-16T05:25:15;3.58;;;2.78;;
9292;SDS011;69930;48.232;12.384;2024-01-16T05:27:54;3.67;;;2.35;;
9292;SDS011;69930;48.232;12.384;2024-01-16T05:30:21;2.47;;;2.28;;
9292;SDS011;69930;48.232;12.384;2024-01-16T05:32:48;4.82;;;3.05;;
9292;SDS011;69930;48.232;12.384;2024-01-16T05:35:17;3.55;;;2.20;;
9292;SDS011;69930;48.232;12.384;2024-01-16T05:49:03;3.72;;;2.67;;
9292;SDS011;69930;48.232;12.384;2024-01-16T05:51:31;2.97;;;2.40;;
9292;SDS011;69930;48.232;12.384;2024-01-16T05:53:59;2.97;;;2.47;;
9292;SDS011;69930;48.232;12.384;2024-01-16T05:56:27;3.65;;;2.28;;
9292;SDS011;69930;48.232;12.384;2024-01-16T05:59:08;3.25;;;2.50;;
9292;SDS011;69930;48.232;12.384;2024-01-16T06:01:37;3.55;;;2.78;;
9292;SDS011;69930;48.232;12.384;2024-01-16T06:04:05;4.13;;;2.38;;
9292;SDS011;69930;48.232;12.384;2024-01-16T06:06:32;3.08;;;2.40;;
9292;SDS011;69930;48.232;12.384;2024-01-16T06:08:59;3.38;;;2.40;;
9292;SDS011;69930;48.232;12.384;2024-01-16T06:11:30;3.15;;;2.72;;
9292;SDS011;69930;48.232;12.384;2024-01-16T06:13:58;4.03;;;2.53;;
9292;SDS011;69930;48.232;12.384;2024-01-16T06:16:25;3.78;;;2.60;;
9292;SDS011;69930;48.232;12.384;2024-01-16T06:18:53;5.18;;;3.17;;
9292;SDS011;69930;48.232;12.384;2024-01-16T06:45:12;4.18;;;3.28;;
9292;SDS011;69930;48.232;12.384;2024-01-16T06:47:53;5.93;;;3.67;;
9292;SDS011;69930;48.232;12.384;2024-01-16T06:53:31;5.20;;;3.47;;
9292;SDS011;69930;48.232;12.384;2024-01-16T06:56:05;3.75;;;3.45;;
9292;SDS011;69930;48.232;12.384;2024-01-16T06:58:34;4.23;;;3.40;;
9292;SDS011;69930;48.232;12.384;2024-01-16T07:01:02;4.00;;;3.53;;
9292;SDS011;69930;48.232;12.384;2024-01-16T07:03:31;5.40;;;3.92;;
9292;SDS011;69930;48.232;12.384;2024-01-16T07:06:16;4.10;;;3.63;;
9292;SDS011;69930;48.232;12.384;2024-01-16T07:08:44;5.53;;;3.78;;
9292;SDS011;69930;48.232;12.384;2024-01-16T07:11:11;4.68;;;3.25;;
9292;SDS011;69930;48.232;12.384;2024-01-16T07:13:55;3.28;;;2.97;;
9292;SDS011;69930;48.232;12.384;2024-01-16T07:16:36;4.68;;;3.15;;
9292;SDS011;69930;48.232;12.384;2024-01-16T07:19:11;4.45;;;3.30;;
9292;SDS011;69930;48.232;12.384;2024-01-16T07:21:39;6.05;;;3.50;;
9292;SDS011;69930;48.232;12.384;2024-01-16T07:24:20;3.63;;;3.10;;
9292;SDS011;69930;48.232;12.384;2024-01-16T07:26:48;4.30;;;3.15;;
9292;SDS011;69930;48.232;12.384;2024-01-16T07:29:25;3.25;;;2.70;;
9292;SDS011;69930;48.232;12.384;2024-01-16T07:31:52;4.90;;;3.42;;
9292;SDS011;69930;48.232;12.384;2024-01-16T07:34:20;3.50;;;2.80;;
9292;SDS011;69930;48.232;12.384;2024-01-16T07:36:48;4.47;;;2.90;;
9292;SDS011;69930;48.232;12.384;2024-01-16T07:39:15;3.75;;;2.70;;
9292;SDS011;69930;48.232;12.384;2024-01-16T07:41:42;3.63;;;2.53;;
9292;SDS011;69930;48.232;12.384;2024-01-16T07:44:08;3.88;;;2.97;;
9292;SDS011;69930;48.232;12.384;2024-01-16T07:46:39;5.10;;;2.90;;
9292;SDS011;69930;48.232;12.384;2024-01-16T07:49:06;4.28;;;3.40;;
9292;SDS011;69930;48.232;12.384;2024-01-16T07:51:33;4.50;;;2.90;;
9292;SDS011;69930;48.232;12.384;2024-01-16T07:54:04;4.68;;;3.10;;
9292;SDS011;69930;48.232;12.384;2024-01-16T07:56:33;3.53;;;2.50;;
9292;SDS011;69930;48.232;12.384;2024-01-16T07:59:02;2.78;;;2.30;;
9292;SDS011;69930;48.232;12.384;2024-01-16T08:01:32;3.50;;;2.63;;
9292;SDS011;69930;48.232;12.384;2024-01-16T08:04:01;5.75;;;2.70;;
9292;SDS011;69930;48.232;12.384;2024-01-16T08:06:31;4.45;;;3.00;;
9292;SDS011;69930;48.232;12.384;2024-01-16T08:08:58;3.53;;;2.72;;
9292;SDS011;69930;48.232;12.384;2024-01-16T08:11:25;4.13;;;2.90;;
9292;SDS011;69930;48.232;12.384;2024-01-16T08:13:52;4.30;;;2.95;;
9292;SDS011;69930;48.232;12.384;2024-01-16T08:16:19;3.65;;;2.75;;
9292;SDS011;69930;48.232;12.384;2024-01-16T08:18:47;4.53;;;2.92;;
9292;SDS011;69930;48.232;12.384;2024-01-16T08:23:59;4.07;;;2.55;;
9292;SDS011;69930;48.232;12.384;2024-01-16T08:26:26;3.70;;;2.72;;
9292;SDS011;69930;48.232;12.384;2024-01-16T08:28:54;3.35;;;3.05;;
9292;SDS011;69930;48.232;12.384;2024-01-16T08:31:21;6.53;;;5.28;;
9292;SDS011;69930;48.232;12.384;2024-01-16T08:33:48;7.80;;;6.15;;
9292;SDS011;69930;48.232;12.384;2024-01-16T08:36:21;5.25;;;4.35;;
9292;SDS011;69930;48.232;12.384;2024-01-16T08:38:50;5.03;;;3.47;;
9292;SDS011;69930;48.232;12.384;2024-01-16T08:41:19;4.63;;;3.22;;
9292;SDS011;69930;48.232;12.384;2024-01-16T08:43:46;3.33;;;2.70;;
9292;SDS011;69930;48.232;12.384;2024-01-16T08:46:14;3.00;;;2.80;;
9292;SDS011;69930;48.232;12.384;2024-01-16T08:48:41;3.92;;;2.80;;
9292;SDS011;69930;48.232;12.384;2024-01-16T08:51:10;4.30;;;3.10;;
9292;SDS011;69930;48.232;12.384;2024-01-16T08:53:39;4.25;;;2.78;;
9292;SDS011;69930;48.232;12.384;2024-01-16T08:56:08;3.67;;;3.00;;
9292;SDS011;69930;48.232;12.384;2024-01-16T09:04:16;4.55;;;2.97;;
9292;SDS011;69930;48.232;12.384;2024-01-16T09:06:44;4.30;;;2.78;;
9292;SDS011;69930;48.232;12.384;2024-01-16T09:09:11;14.50;;;10.20;;
9292;SDS011;69930;48.232;12.384;2024-01-16T09:11:39;5.00;;;3.00;;
9292;SDS011;69930;48.232;12.384;2024-01-16T09:14:06;9.40;;;6.35;;
9292;SDS011;69930;48.232;12.384;2024-01-16T09:16:34;5.90;;;3.20;;
9292;SDS011;69930;48.232;12.384;2024-01-16T09:19:01;3.65;;;2.67;;
9292;SDS011;69930;48.232;12.384;2024-01-16T09:21:30;2.85;;;2.50;;
9292;SDS011;69930;48.232;12.384;2024-01-16T09:23:58;7.65;;;5.20;;
9292;SDS011;69930;48.232;12.384;2024-01-16T09:26:25;94.55;;;56.60;;
9292;SDS011;69930;48.232;12.384;2024-01-16T09:28:53;84.43;;;50.20;;
9292;SDS011;69930;48.232;12.384;2024-01-16T09:31:20;37.72;;;23.85;;
9292;SDS011;69930;48.232;12.384;2024-01-16T09:33:48;35.50;;;22.30;;
9292;SDS011;69930;48.232;12.384;2024-01-16T09:36:16;12.88;;;8.02;;
9292;SDS011;69930;48.232;12.384;2024-01-16T09:38:43;6.85;;;5.65;;
9292;SDS011;69930;48.232;12.384;2024-01-16T09:41:10;7.10;;;5.90;;
9292;SDS011;69930;48.232;12.384;2024-01-16T09:43:37;6.78;;;5.72;;
9292;SDS011;69930;48.232;12.384;2024-01-16T09:46:07;8.40;;;7.53;;
9292;SDS011;69930;48.232;12.384;2024-01-16T09:48:36;6.72;;;5.45;;
9292;SDS011;69930;48.232;12.384;2024-01-16T09:51:03;5.68;;;5.03;;
9292;SDS011;69930;48.232;12.384;2024-01-16T09:53:31;6.53;;;5.68;;
9292;SDS011;69930;48.232;12.384;2024-01-16T09:55:59;9.82;;;8.43;;
9292;SDS011;69930;48.232;12.384;2024-01-16T09:58:30;11.55;;;9.68;;
9292;SDS011;69930;48.232;12.384;2024-01-16T10:01:02;9.32;;;6.55;;
9292;SDS011;69930;48.232;12.384;2024-01-16T10:03:32;11.25;;;8.43;;
9292;SDS011;69930;48.232;12.384;2024-01-16T10:06:01;12.95;;;9.65;;
9292;SDS011;69930;48.232;12.384;2024-01-16T10:08:33;10.13;;;7.47;;
9292;SDS011;69930;48.232;12.384;2024-01-16T10:11:00;11.35;;;9.27;;
9292;SDS011;69930;48.232;12.384;2024-01-16T10:13:28;13.50;;;10.40;;
9292;SDS011;69930;48.232;12.384;2024-01-16T10:15:55;8.82;;;7.22;;
9292;SDS011;69930;48.232;12.384;2024-01-16T10:18:25;8.38;;;6.60;;
9292;SDS011;69930;48.232;12.384;2024-01-16T10:20:54;7.63;;;6.80;;
9292;SDS011;69930;48.232;12.384;2024-01-16T10:23:22;9.52;;;7.60;;
9292;SDS011;69930;48.232;12.384;2024-01-16T10:26:04;6.97;;;5.80;;
9292;SDS011;69930;48.232;12.384;2024-01-16T10:28:32;6.28;;;5.20;;
9292;SDS011;69930;48.232;12.384;2024-01-16T10:31:03;5.97;;;5.38;;
9292;SDS011;69930;48.232;12.384;2024-01-16T10:33:31;6.75;;;5.70;;
9292;SDS011;69930;48.232;12.384;2024-01-16T10:36:08;7.63;;;5.82;;
9292;SDS011;69930;48.232;12.384;2024-01-16T10:38:36;9.30;;;6.70;;
9292;SDS011;69930;48.232;12.384;2024-01-16T10:41:11;8.60;;;6.68;;
9292;SDS011;69930;48.232;12.384;2024-01-16T10:43:40;8.73;;;6.30;;
9292;SDS011;69930;48.232;12.384;2024-01-16T10:46:11;8.30;;;5.90;;
9292;SDS011;69930;48.232;12.384;2024-01-16T10:48:40;7.93;;;6.40;;
9292;SDS011;69930;48.232;12.384;2024-01-16T10:51:13;10.23;;;6.85;;
9292;SDS011;69930;48.232;12.384;2024-01-16T10:53:42;7.35;;;5.50;;
9292;SDS011;69930;48.232;12.384;2024-01-16T10:56:12;6.75;;;5.00;;
9292;SDS011;69930;48.232;12.384;2024-01-16T10:58:41;9.38;;;5.30;;
9292;SDS011;69930;48.232;12.384;2024-01-16T11:01:10;7.30;;;5.03;;
9292;SDS011;69930;48.232;12.384;2024-01-16T11:03:40;5.97;;;5.20;;
9292;SDS011;69930;48.232;12.384;2024-01-16T11:06:15;5.93;;;5.10;;
9292;SDS011;69930;48.232;12.384;2024-01-16T11:08:45;13.55;;;10.25;;
9292;SDS011;69930;48.232;12.384;2024-01-16T11:11:13;7.32;;;5.60;;
9292;SDS011;69930;48.232;12.384;2024-01-16T11:13:41;5.68;;;4.93;;
9292;SDS011;69930;48.232;12.384;2024-01-16T11:16:10;7.72;;;5.50;;
9292;SDS011;69930;48.232;12.384;2024-01-16T11:18:37;7.32;;;5.60;;
9292;SDS011;69930;48.232;12.384;2024-01-16T11:21:05;9.25;;;6.72;;
9292;SDS011;69930;48.232;12.384;2024-01-16T11:23:37;7.63;;;6.47;;
9292;SDS011;69930;48.232;12.384;2024-01-16T11:26:24;7.88;;;5.70;;
9292;SDS011;69930;48.232;12.384;2024-01-16T11:28:57;7.07;;;5.10;;
9292;SDS011;69930;48.232;12.384;2024-01-16T11:31:31;5.70;;;5.10;;
9292;SDS011;69930;48.232;12.384;2024-01-16T11:34:00;5.72;;;5.22;;
9292;SDS011;69930;48.232;12.384;2024-01-16T11:39:22;5.63;;;5.03;;
9292;SDS011;69930;48.232;12.384;2024-01-16T11:41:51;6.57;;;4.85;;
9292;SDS011;69930;48.232;12.384;2024-01-16T11:47:16;6.97;;;5.28;;
9292;SDS011;69930;48.232;12.384;2024-01-16T11:50:12;6.63;;;5.15;;
9292;SDS011;69930;48.232;12.384;2024-01-16T11:52:54;7.53;;;5.63;;
9292;SDS011;69930;48.232;12.384;2024-01-16T11:55:27;6.43;;;5.57;;
9292;SDS011;69930;48.232;12.384;2024-01-16T11:58:03;6.72;;;5.30;;
9292;SDS011;69930;48.232;12.384;2024-01-16T12:00:48;6.68;;;5.20;;
9292;SDS011;69930;48.232;12.384;2024-01-16T12:03:18;12.85;;;9.38;;
9292;SDS011;69930;48.232;12.384;2024-01-16T12:05:54;7.75;;;6.38;;
9292;SDS011;69930;48.232;12.384;2024-01-16T12:08:21;7.95;;;5.53;;
9292;SDS011;69930;48.232;12.384;2024-01-16T12:10:50;5.70;;;5.07;;
9292;SDS011;69930;48.232;12.384;2024-01-16T12:13:17;9.73;;;5.13;;
9292;SDS011;69930;48.232;12.384;2024-01-16T12:15:45;6.65;;;5.13;;
9292;SDS011;69930;48.232;12.384;2024-01-16T12:18:17;8.20;;;5.85;;
9292;SDS011;69930;48.232;12.384;2024-01-16T12:20:45;7.30;;;5.32;;
9292;SDS011;69930;48.232;12.384;2024-01-16T12:23:13;9.10;;;5.57;;
9292;SDS011;69930;48.232;12.384;2024-01-16T12:25:40;7.30;;;5.55;;
9292;SDS011;69930;48.232;12.384;2024-01-16T12:28:09;5.28;;;4.78;;
9292;SDS011;69930;48.232;12.384;2024-01-16T12:30:37;7.22;;;4.97;;
9292;SDS011;69930;48.232;12.384;2024-01-16T12:33:05;7.75;;;5.13;;
9292;SDS011;69930;48.232;12.384;2024-01-16T12:35:36;12.15;;;5.88;;
9292;SDS011;69930;48.232;12.384;2024-01-16T12:38:05;6.35;;;5.47;;
9292;SDS011;69930;48.232;12.384;2024-01-16T12:40:34;6.43;;;5.35;;
9292;SDS011;69930;48.232;12.384;2024-01-16T12:43:03;6.47;;;4.97;;
9292;SDS011;69930;48.232;12.384;2024-01-16T12:45:31;6.43;;;4.50;;
9292;SDS011;69930;48.232;12.384;2024-01-16T12:47:59;7.07;;;4.88;;
9292;SDS011;69930;48.232;12.384;2024-01-16T12:50:29;8.18;;;4.00;;
9292;SDS011;69930;48.232;12.384;2024-01-16T12:53:00;5.32;;;3.20;;
9292;SDS011;69930;48.232;12.384;2024-01-16T12:55:29;4.25;;;2.55;;
9292;SDS011;69930;48.232;12.384;2024-01-16T12:58:13;5.65;;;3.20;;
9292;SDS011;69930;48.232;12.384;2024-01-16T13:00:43;3.90;;;2.25;;
9292;SDS011;69930;48.232;12.384;2024-01-16T13:03:14;3.72;;;2.00;;
9292;SDS011;69930;48.232;12.384;2024-01-16T13:05:43;4.20;;;1.83;;
9292;SDS011;69930;48.232;12.384;2024-01-16T13:08:18;5.10;;;2.42;;
9292;SDS011;69930;48.232;12.384;2024-01-16T13:10:46;3.10;;;1.83;;
9292;SDS011;69930;48.232;12.384;2024-01-16T13:13:14;1.75;;;1.42;;
9292;SDS011;69930;48.232;12.384;2024-01-16T13:15:43;3.88;;;1.80;;
9292;SDS011;69930;48.232;12.384;2024-01-16T13:18:18;3.25;;;1.90;;
9292;SDS011;69930;48.232;12.384;2024-01-16T13:20:47;4.55;;;2.22;;
9292;SDS011;69930;48.232;12.384;2024-01-16T13:23:15;3.70;;;2.35;;
9292;SDS011;69930;48.232;12.384;2024-01-16T13:25:43;5.38;;;2.55;;
9292;SDS011;69930;48.232;12.384;2024-01-16T13:28:12;4.70;;;2.65;;
9292;SDS011;69930;48.232;12.384;2024-01-16T13:30:39;5.10;;;2.75;;
9292;SDS011;69930;48.232;12.384;2024-01-16T13:33:08;8.48;;;3.78;;
9292;SDS011;69930;48.232;12.384;2024-01-16T13:35:37;5.50;;;2.83;;
9292;SDS011;69930;48.232;12.384;2024-01-16T13:38:05;4.80;;;3.20;;
9292;SDS011;69930;48.232;12.384;2024-01-16T13:40:33;6.47;;;3.10;;
9292;SDS011;69930;48.232;12.384;2024-01-16T13:43:01;7.03;;;3.67;;
9292;SDS011;69930;48.232;12.384;2024-01-16T13:45:28;5.47;;;3.55;;
9292;SDS011;69930;48.232;12.384;2024-01-16T13:47:56;5.32;;;3.50;;
9292;SDS011;69930;48.232;12.384;2024-01-16T13:50:25;7.25;;;3.70;;
9292;SDS011;69930;48.232;12.384;2024-01-16T13:52:53;7.32;;;3.70;;
9292;SDS011;69930;48.232;12.384;2024-01-16T13:55:20;6.05;;;3.90;;
9292;SDS011;69930;48.232;12.384;2024-01-16T13:57:47;5.57;;;3.58;;
9292;SDS011;69930;48.232;12.384;2024-01-16T14:00:15;6.47;;;3.97;;
9292;SDS011;69930;48.232;12.384;2024-01-16T14:02:43;5.03;;;3.75;;
9292;SDS011;69930;48.232;12.384;2024-01-16T14:05:11;6.45;;;3.33;;
9292;SDS011;69930;48.232;12.384;2024-01-16T14:07:42;4.60;;;3.17;;
9292;SDS011;69930;48.232;12.384;2024-01-16T14:10:11;6.10;;;3.50;;
9292;SDS011;69930;48.232;12.384;2024-01-16T14:12:40;6.05;;;3.45;;
9292;SDS011;69930;48.232;12.384;2024-01-16T14:15:08;6.65;;;3.42;;
9292;SDS011;69930;48.232;12.384;2024-01-16T14:17:42;6.07;;;3.33;;
9292;SDS011;69930;48.232;12.384;2024-01-16T14:20:10;6.05;;;3.47;;
9292;SDS011;69930;48.232;12.384;2024-01-16T14:22:38;8.70;;;4.20;;
9292;SDS011;69930;48.232;12.384;2024-01-16T14:25:10;7.60;;;4.30;;
9292;SDS011;69930;48.232;12.384;2024-01-16T14:27:40;6.63;;;3.65;;
9292;SDS011;69930;48.232;12.384;2024-01-16T14:30:09;9.65;;;6.72;;
9292;SDS011;69930;48.232;12.384;2024-01-16T14:32:37;9.15;;;5.72;;
9292;SDS011;69930;48.232;12.384;2024-01-16T14:35:05;8.43;;;4.80;;
9292;SDS011;69930;48.232;12.384;2024-01-16T14:37:34;6.13;;;4.00;;
9292;SDS011;69930;48.232;12.384;2024-01-16T14:40:02;5.25;;;3.70;;
9292;SDS011;69930;48.232;12.384;2024-01-16T14:42:34;8.60;;;3.58;;
9292;SDS011;69930;48.232;12.384;2024-01-16T14:45:01;10.32;;;3.65;;
9292;SDS011;69930;48.232;12.384;2024-01-16T14:47:31;7.65;;;3.30;;
9292;SDS011;69930;48.232;12.384;2024-01-16T14:49:58;6.05;;;3.60;;
9292;SDS011;69930;48.232;12.384;2024-01-16T14:52:25;8.70;;;4.07;;
9292;SDS011;69930;48.232;12.384;2024-01-16T14:54:52;8.70;;;3.53;;
9292;SDS011;69930;48.232;12.384;2024-01-16T14:57:19;7.78;;;3.97;;
9292;SDS011;69930;48.232;12.384;2024-01-16T14:59:48;8.75;;;4.35;;
9292;SDS011;69930;48.232;12.384;2024-01-16T15:02:15;7.30;;;4.35;;
9292;SDS011;69930;48.232;12.384;2024-01-16T15:04:42;6.80;;;3.90;;
9292;SDS011;69930;48.232;12.384;2024-01-16T15:07:09;7.80;;;4.45;;
9292;SDS011;69930;48.232;12.384;2024-01-16T15:09:36;8.30;;;4.68;;
9292;SDS011;69930;48.232;12.384;2024-01-16T15:12:05;7.43;;;4.57;;
9292;SDS011;69930;48.232;12.384;2024-01-16T15:14:32;11.57;;;5.40;;
9292;SDS011;69930;48.232;12.384;2024-01-16T15:17:01;9.13;;;5.13;;
9292;SDS011;69930;48.232;12.384;2024-01-16T15:19:29;12.55;;;5.18;;
9292;SDS011;69930;48.232;12.384;2024-01-16T15:21:57;9.23;;;4.85;;
9292;SDS011;69930;48.232;12.384;2024-01-16T15:24:25;8.80;;;5.25;;
9292;SDS011;69930;48.232;12.384;2024-01-16T15:26:54;8.57;;;5.70;;
9292;SDS011;69930;48.232;12.384;2024-01-16T15:29:22;8.65;;;4.97;;
9292;SDS011;69930;48.232;12.384;2024-01-16T15:31:51;8.98;;;4.53;;
9292;SDS011;69930;48.232;12.384;2024-01-16T15:34:19;7.43;;;4.95;;
9292;SDS011;69930;48.232;12.384;2024-01-16T15:36:48;10.80;;;6.20;;
9292;SDS011;69930;48.232;12.384;2024-01-16T15:39:15;12.60;;;5.05;;
9292;SDS011;69930;48.232;12.384;2024-01-16T15:41:42;10.20;;;6.40;;
9292;SDS011;69930;48.232;12.384;2024-01-16T15:44:10;8.82;;;5.00;;
9292;SDS011;69930;48.232;12.384;2024-01-16T15:46:54;15.45;;;10.13;;
9292;SDS011;69930;48.232;12.384;2024-01-16T15:49:23;17.27;;;10.07;;
9292;SDS011;69930;48.232;12.384;2024-01-16T15:51:51;15.77;;;9.60;;
9292;SDS011;69930;48.232;12.384;2024-01-16T15:54:19;15.57;;;8.98;;